createdAt,value
2019-03-15T00:03:00.098Z,6.25
2019-03-15T00:07:05.552Z,6.29
2019-03-15T00:11:10.895Z,6.36
2019-03-15T00:15:16.311Z,6.48
2019-03-15T00:19:21.945Z,6.30
2019-03-15T00:23:27.509Z,6.45
2019-03-15T00:27:33.063Z,6.40
2019-03-15T00:31:38.552Z,6.41
2019-03-15T00:35:43.995Z,6.52
2019-03-15T00:39:49.608Z,6.54
2019-03-15T00:43:54.996Z,6.48
2019-03-15T00:48:00.452Z,6.47
2019-03-15T00:52:05.882Z,6.63
2019-03-15T00:56:11.763Z,6.61
2019-03-15T01:00:17.375Z,6.60
2019-03-15T01:04:22.686Z,6.63
2019-03-15T01:08:28.142Z,6.63
2019-03-15T01:12:33.918Z,6.72
2019-03-15T01:16:39.621Z,6.54
2019-03-15T01:20:45.321Z,6.68
2019-03-15T01:24:50.673Z,6.58
2019-03-15T01:28:55.991Z,6.62
2019-03-15T01:33:01.439Z,6.53
2019-03-15T01:37:07.119Z,6.58
2019-03-15T01:41:12.481Z,6.50
2019-03-15T01:45:18.458Z,6.68
2019-03-15T01:49:24.039Z,6.58
2019-03-15T01:53:29.411Z,6.60
2019-03-15T01:57:35.065Z,6.59
2019-03-15T02:01:40.398Z,6.66
2019-03-15T02:05:45.816Z,6.37
2019-03-15T02:09:51.627Z,6.42
2019-03-15T02:13:57.401Z,6.45
2019-03-15T02:18:02.825Z,6.54
2019-03-15T02:22:08.531Z,6.45
2019-03-15T02:26:14.334Z,6.36
2019-03-15T02:30:19.777Z,6.36
2019-03-15T02:34:25.438Z,6.46
2019-03-15T02:38:30.920Z,6.37
2019-03-15T02:42:36.377Z,6.40
2019-03-15T02:46:41.799Z,6.33
2019-03-15T02:50:47.263Z,6.37
2019-03-15T02:54:53.711Z,6.36
2019-03-15T02:59:00.034Z,6.38
2019-03-15T03:03:05.468Z,6.38
2019-03-15T03:07:11.182Z,6.46
2019-03-15T03:11:16.634Z,6.38
2019-03-15T03:15:21.995Z,6.31
2019-03-15T03:19:28.199Z,6.24
2019-03-15T03:23:33.902Z,6.38
2019-03-15T03:27:39.180Z,6.31
2019-03-15T03:31:45.593Z,6.28
2019-03-15T03:35:51.474Z,6.30
2019-03-15T03:39:56.845Z,6.26
2019-03-15T03:44:02.271Z,6.29
2019-03-15T03:48:08.510Z,6.19
2019-03-15T03:52:13.937Z,6.37
2019-03-15T03:56:19.410Z,6.28
2019-03-15T04:00:24.925Z,6.22
2019-03-15T04:04:30.375Z,6.19
2019-03-15T04:08:35.876Z,6.14
2019-03-15T04:12:41.433Z,6.32
2019-03-15T04:16:46.806Z,6.35
2019-03-15T04:20:52.115Z,6.38
2019-03-15T04:24:57.541Z,6.39
2019-03-15T04:29:02.941Z,6.51
2019-03-15T04:33:08.636Z,6.50
2019-03-15T04:37:13.862Z,6.47
2019-03-15T04:41:19.287Z,6.58
2019-03-15T04:45:24.557Z,6.54
2019-03-15T04:49:30.000Z,6.59
2019-03-15T04:53:35.675Z,6.58
2019-03-15T04:57:41.041Z,6.61
2019-03-15T05:01:46.662Z,6.49
2019-03-15T05:06:11.496Z,6.55
2019-03-15T05:10:16.993Z,6.55
2019-03-15T05:14:22.385Z,6.59
2019-03-15T05:18:27.738Z,6.59
2019-03-15T05:22:33.679Z,6.57
2019-03-15T05:26:39.115Z,6.60
2019-03-15T05:30:44.485Z,6.55
2019-03-15T05:34:49.776Z,6.51
2019-03-15T05:38:55.462Z,6.62
2019-03-15T05:43:00.908Z,6.50
2019-03-15T05:47:06.345Z,6.52
2019-03-15T05:51:11.895Z,6.49
2019-03-15T05:55:17.329Z,6.50
2019-03-15T05:59:22.824Z,6.50
2019-03-15T06:03:28.494Z,6.50
2019-03-15T06:07:33.948Z,6.45
2019-03-15T06:11:39.424Z,6.44
2019-03-15T06:15:48.334Z,6.48
2019-03-15T06:19:54.111Z,6.40
2019-03-15T06:23:59.991Z,6.49
2019-03-15T06:28:05.891Z,6.43
2019-03-15T06:32:12.009Z,6.51
2019-03-15T06:36:17.511Z,6.50
2019-03-15T06:40:23.061Z,6.49
2019-03-15T06:44:29.082Z,6.41
2019-03-15T06:48:34.530Z,6.36
2019-03-15T06:52:40.290Z,6.34
2019-03-15T06:56:46.001Z,6.30
2019-03-15T07:00:54.633Z,6.28
2019-03-15T07:04:58.822Z,6.30
2019-03-15T07:09:07.280Z,6.30
2019-03-15T07:13:12.847Z,6.30
2019-03-15T07:17:18.295Z,6.32
2019-03-15T07:21:24.053Z,6.36
2019-03-15T07:25:29.487Z,6.42
2019-03-15T07:29:34.912Z,6.46
2019-03-15T07:33:40.321Z,6.42
2019-03-15T07:37:46.071Z,6.46
2019-03-15T07:41:51.449Z,6.45
2019-03-15T07:45:57.153Z,6.48
2019-03-15T07:50:02.745Z,6.48
2019-03-15T07:54:08.135Z,6.55
2019-03-15T07:58:13.458Z,6.46
2019-03-15T08:02:18.922Z,6.48
2019-03-15T08:06:34.272Z,6.52
2019-03-15T08:10:31.612Z,6.54
2019-03-15T08:14:37.324Z,6.59
2019-03-15T08:18:42.780Z,6.69
2019-03-15T08:22:48.214Z,6.72
2019-03-15T08:26:53.679Z,6.73
2019-03-15T08:30:59.030Z,6.81
2019-03-15T08:35:04.729Z,6.90
2019-03-15T08:39:10.238Z,7.00
2019-03-15T08:43:16.043Z,7.11
2019-03-15T08:47:21.895Z,7.31
2019-03-15T08:51:27.577Z,7.48
2019-03-15T08:55:33.046Z,7.69
2019-03-15T08:59:38.326Z,7.89
2019-03-15T09:03:43.774Z,8.06
2019-03-15T09:07:49.224Z,8.23
2019-03-15T09:11:55.034Z,8.35
2019-03-15T09:16:00.347Z,8.47
2019-03-15T09:20:06.301Z,8.66
2019-03-15T09:24:11.815Z,8.83
2019-03-15T09:28:17.261Z,8.92
2019-03-15T09:32:22.761Z,9.02
2019-03-15T09:36:28.195Z,9.13
2019-03-15T09:40:33.635Z,9.23
2019-03-15T09:44:39.130Z,9.28
2019-03-15T09:48:44.901Z,9.43
2019-03-15T09:52:50.597Z,9.45
2019-03-15T09:56:55.963Z,9.53
2019-03-15T10:01:01.711Z,9.59
2019-03-15T10:05:11.342Z,9.63
2019-03-15T10:09:14.877Z,9.70
2019-03-15T10:13:20.695Z,9.82
2019-03-15T10:17:25.953Z,9.85
2019-03-15T10:21:32.706Z,9.92
2019-03-15T10:25:46.699Z,9.98
2019-03-15T10:29:45.259Z,10.02
2019-03-15T10:33:51.092Z,10.07
2019-03-15T10:37:56.745Z,10.08
2019-03-15T10:42:02.114Z,10.10
2019-03-15T10:46:07.607Z,10.16
2019-03-15T10:50:13.478Z,10.19
2019-03-15T10:54:18.879Z,10.30
2019-03-15T10:58:24.340Z,10.37
2019-03-15T11:02:29.751Z,10.39
2019-03-15T11:06:35.181Z,10.52
2019-03-15T11:10:40.566Z,10.59
2019-03-15T11:14:46.263Z,10.59
2019-03-15T11:18:51.883Z,10.62
2019-03-15T11:22:57.411Z,10.62
2019-03-15T11:27:03.304Z,10.62
2019-03-15T11:31:08.816Z,10.73
2019-03-15T11:35:14.510Z,10.82
2019-03-15T11:39:20.909Z,10.83
2019-03-15T11:43:26.435Z,10.86
2019-03-15T11:47:44.478Z,10.86
2019-03-15T11:51:42.323Z,11.02
2019-03-15T11:55:46.843Z,11.18
2019-03-15T11:59:52.218Z,11.33
2019-03-15T12:03:58.007Z,11.44
2019-03-15T12:08:03.366Z,11.49
2019-03-15T12:12:08.891Z,11.47
2019-03-15T12:16:14.240Z,11.61
2019-03-15T12:20:19.780Z,11.56
2019-03-15T12:24:25.523Z,11.53
2019-03-15T12:28:30.990Z,11.53
2019-03-15T12:32:36.451Z,11.65
2019-03-15T12:36:41.944Z,11.95
2019-03-15T12:40:47.770Z,11.92
2019-03-15T12:44:53.140Z,11.98
2019-03-15T12:48:58.507Z,11.85
2019-03-15T12:53:03.867Z,11.87
2019-03-15T12:57:09.322Z,12.01
2019-03-15T13:01:14.873Z,12.21
2019-03-15T13:05:20.573Z,12.15
2019-03-15T13:09:25.886Z,12.25
2019-03-15T13:13:31.347Z,12.25
2019-03-15T13:17:36.859Z,12.23
2019-03-15T13:21:42.298Z,12.17
2019-03-15T13:25:47.675Z,12.27
2019-03-15T13:29:53.385Z,12.29
2019-03-15T13:33:58.766Z,12.21
2019-03-15T13:38:04.200Z,12.16
2019-03-15T13:42:09.622Z,12.07
2019-03-15T13:46:17.406Z,12.07
2019-03-15T13:50:23.112Z,11.98
2019-03-15T13:54:28.600Z,11.98
2019-03-15T13:58:34.077Z,12.05
2019-03-15T14:02:39.725Z,11.98
2019-03-15T14:06:45.126Z,12.09
2019-03-15T14:10:50.482Z,12.05
2019-03-15T14:14:55.955Z,12.04
2019-03-15T14:19:01.332Z,12.06
2019-03-15T14:23:07.013Z,12.01
2019-03-15T14:27:12.460Z,12.02
2019-03-15T14:31:17.875Z,12.03
2019-03-15T14:35:23.650Z,12.08
2019-03-15T14:39:29.238Z,12.13
2019-03-15T14:43:34.642Z,12.06
2019-03-15T14:47:40.241Z,12.09
2019-03-15T14:51:45.701Z,12.14
2019-03-15T14:55:51.354Z,12.07
2019-03-15T14:59:56.648Z,12.01
2019-03-15T15:04:02.063Z,11.91
2019-03-15T15:08:07.526Z,11.91
2019-03-15T15:12:12.878Z,12.00
2019-03-15T15:16:18.502Z,12.00
2019-03-15T15:20:23.937Z,11.96
2019-03-15T15:24:29.654Z,12.01
2019-03-15T15:28:35.409Z,11.96
2019-03-15T15:32:40.799Z,11.73
2019-03-15T15:36:46.202Z,11.63
2019-03-15T15:40:51.593Z,11.45
2019-03-15T15:44:57.069Z,11.19
2019-03-15T15:49:02.375Z,11.02
2019-03-15T15:53:10.912Z,10.93
2019-03-15T15:57:15.029Z,10.86
2019-03-15T16:01:20.494Z,10.90
2019-03-15T16:05:26.005Z,10.83
2019-03-15T16:09:31.691Z,10.79
2019-03-15T16:13:36.963Z,10.67
2019-03-15T16:17:45.462Z,10.67
2019-03-15T16:21:50.395Z,10.65
2019-03-15T16:25:56.295Z,10.67
2019-03-15T16:30:01.600Z,10.61
2019-03-15T16:34:07.094Z,10.65
2019-03-15T16:38:12.536Z,10.67
2019-03-15T16:42:17.971Z,10.69
2019-03-15T16:46:23.671Z,10.65
2019-03-15T16:50:29.143Z,10.62
2019-03-15T16:54:34.606Z,10.56
2019-03-15T16:58:45.243Z,10.58
2019-03-15T17:02:47.347Z,10.60
2019-03-15T17:06:53.087Z,10.63
2019-03-15T17:10:58.769Z,10.69
2019-03-15T17:15:04.591Z,10.73
2019-03-15T17:19:10.016Z,10.62
2019-03-15T17:23:15.525Z,10.56
2019-03-15T17:27:20.946Z,10.66
2019-03-15T17:31:26.374Z,10.54
2019-03-15T17:35:31.863Z,10.54
2019-03-15T17:39:37.206Z,10.57
2019-03-15T17:43:42.659Z,10.56
2019-03-15T17:47:48.786Z,10.55
2019-03-15T17:51:54.329Z,10.57
2019-03-15T17:56:00.008Z,10.50
2019-03-15T18:00:36.266Z,10.49
2019-03-15T18:04:41.635Z,10.47
2019-03-15T18:08:47.149Z,10.38
2019-03-15T18:12:52.667Z,10.33
2019-03-15T18:16:58.119Z,10.31
2019-03-15T18:21:04.191Z,9.18
2019-03-15T18:25:09.692Z,8.77
2019-03-15T18:29:25.894Z,8.38
2019-03-15T18:33:22.316Z,8.28
2019-03-15T18:37:27.727Z,8.15
2019-03-15T18:41:33.424Z,8.06
2019-03-15T18:45:38.968Z,7.95
2019-03-15T18:49:44.439Z,7.95
2019-03-15T18:53:49.935Z,7.90
2019-03-15T18:57:55.770Z,7.81
2019-03-15T19:02:01.318Z,7.82
2019-03-15T19:06:06.713Z,7.68
2019-03-15T19:10:12.623Z,7.73
2019-03-15T19:14:18.079Z,7.74
2019-03-15T19:18:23.565Z,7.73
2019-03-15T19:22:28.981Z,7.82
2019-03-15T19:26:34.448Z,7.75
2019-03-15T19:30:39.869Z,7.78
2019-03-15T19:34:45.331Z,7.79
2019-03-15T19:38:50.779Z,7.86
2019-03-15T19:42:56.219Z,7.86
2019-03-15T19:47:01.583Z,7.81
2019-03-15T19:51:07.011Z,7.80
2019-03-15T19:55:13.262Z,7.81
2019-03-15T19:59:19.316Z,7.84
2019-03-15T20:03:24.778Z,7.78
2019-03-15T20:07:30.271Z,7.83
2019-03-15T20:11:35.769Z,7.85
2019-03-15T20:15:41.124Z,7.80
2019-03-15T20:19:46.617Z,7.92
2019-03-15T20:23:51.841Z,7.93
2019-03-15T20:27:57.140Z,7.94
2019-03-15T20:32:02.564Z,7.83
2019-03-15T20:41:48.763Z,7.83
2019-03-15T20:45:54.341Z,7.91
2019-03-15T20:50:00.070Z,7.85
2019-03-15T20:54:05.613Z,7.87
2019-03-15T20:58:11.456Z,7.86
2019-03-15T21:02:17.154Z,7.85
2019-03-15T21:06:22.638Z,7.77
2019-03-15T21:10:28.093Z,7.72
2019-03-15T21:14:33.795Z,7.70
2019-03-15T21:18:39.094Z,7.59
2019-03-15T21:22:44.648Z,7.58
2019-03-15T21:26:50.388Z,7.62
2019-03-15T21:30:56.084Z,7.64
2019-03-15T21:35:01.520Z,7.62
2019-03-15T21:39:09.762Z,7.64
2019-03-15T21:43:15.431Z,7.70
2019-03-15T21:47:20.973Z,7.71
2019-03-15T21:51:26.430Z,7.67
2019-03-15T21:55:31.896Z,7.66
2019-03-15T21:59:39.067Z,7.63
2019-03-15T22:03:44.519Z,7.59
2019-03-15T22:07:50.010Z,7.72
2019-03-15T22:11:55.592Z,7.64
2019-03-15T22:16:00.982Z,7.75
2019-03-15T22:20:07.458Z,7.79
2019-03-15T22:24:12.911Z,7.77
2019-03-15T22:28:18.345Z,7.83
2019-03-15T22:32:24.083Z,7.82
2019-03-15T22:36:29.731Z,7.82
2019-03-15T22:40:35.284Z,7.81
2019-03-15T22:44:40.771Z,7.66
2019-03-15T22:48:46.239Z,7.78
2019-03-15T22:52:51.605Z,7.85
2019-03-15T22:56:56.970Z,7.84
2019-03-15T23:01:02.398Z,7.88
2019-03-15T23:05:07.853Z,7.83
2019-03-15T23:09:13.358Z,7.98
2019-03-15T23:13:18.727Z,7.97
2019-03-15T23:17:24.288Z,7.88
2019-03-15T23:21:29.806Z,7.90
2019-03-15T23:25:35.541Z,7.99
2019-03-15T23:29:41.050Z,7.90
2019-03-15T23:33:47.059Z,7.81
2019-03-15T23:37:52.531Z,7.96
2019-03-15T23:41:58.228Z,7.81
2019-03-15T23:46:03.632Z,7.98
2019-03-15T23:50:09.262Z,7.82
2019-03-15T23:54:14.973Z,7.90
2019-03-15T23:58:20.442Z,8.21
